createdAt,value
2022-09-21T00:01:25.382Z,43.30
2022-09-21T00:03:58.080Z,43.20
2022-09-21T00:06:27.256Z,42.90
2022-09-21T00:08:54.798Z,43.20
2022-09-21T00:11:24.987Z,42.90
2022-09-21T00:13:57.888Z,43.10
2022-09-21T00:16:24.751Z,43.30
2022-09-21T00:18:51.687Z,43.70
2022-09-21T00:21:19.192Z,43.50
2022-09-21T00:23:46.462Z,42.80
2022-09-21T00:26:14.812Z,43.30
2022-09-21T00:28:42.008Z,43.30
2022-09-21T00:31:12.287Z,43.10
2022-09-21T00:33:40.199Z,43.30
2022-09-21T00:36:10.030Z,43.70
2022-09-21T00:38:39.474Z,43.80
2022-09-21T00:41:07.830Z,43.60
2022-09-21T00:43:36.880Z,44.00
2022-09-21T00:46:11.713Z,43.50
2022-09-21T00:48:38.486Z,43.70
2022-09-21T00:51:08.171Z,44.10
2022-09-21T00:53:36.666Z,43.80
2022-09-21T00:56:05.394Z,43.80
2022-09-21T00:58:39.114Z,44.20
2022-09-21T01:01:06.220Z,44.00
2022-09-21T01:03:33.419Z,44.30
2022-09-21T01:06:00.247Z,44.70
2022-09-21T01:08:28.536Z,44.80
2022-09-21T01:11:08.335Z,44.60
2022-09-21T01:13:44.993Z,44.90
2022-09-21T01:17:07.772Z,44.70
2022-09-21T01:19:37.519Z,44.80
2022-09-21T01:22:24.487Z,44.90
2022-09-21T01:25:14.450Z,44.70
2022-09-21T01:28:07.329Z,45.50
2022-09-21T01:30:36.252Z,45.20
2022-09-21T01:33:16.357Z,45.70
2022-09-21T01:35:50.514Z,45.30
2022-09-21T01:38:26.363Z,45.40
2022-09-21T01:40:58.669Z,45.30
2022-09-21T01:43:32.503Z,45.40
2022-09-21T01:46:02.188Z,45.90
2022-09-21T01:48:35.230Z,45.90
2022-09-21T01:51:06.782Z,46.00
2022-09-21T01:53:47.544Z,45.60
2022-09-21T01:56:21.914Z,45.60
2022-09-21T01:59:18.014Z,45.90
2022-09-21T02:02:13.744Z,45.40
2022-09-21T02:04:40.623Z,45.60
2022-09-21T02:07:08.066Z,45.70
2022-09-21T02:09:37.329Z,45.80
2022-09-21T02:12:05.537Z,45.70
2022-09-21T02:14:33.690Z,45.90
2022-09-21T02:17:03.410Z,45.90
2022-09-21T02:19:58.077Z,46.00
2022-09-21T02:22:40.911Z,45.90
2022-09-21T02:25:21.051Z,45.80
2022-09-21T02:27:55.215Z,45.80
2022-09-21T02:30:26.630Z,46.60
2022-09-21T02:33:11.761Z,46.70
2022-09-21T02:35:49.282Z,46.50
2022-09-21T02:38:26.224Z,47.00
2022-09-21T02:41:11.074Z,47.10
2022-09-21T02:43:43.059Z,47.80
2022-09-21T02:46:36.211Z,47.80
2022-09-21T02:49:13.998Z,47.80
2022-09-21T02:51:47.750Z,47.60
2022-09-21T02:54:17.898Z,47.90
2022-09-21T02:56:47.830Z,48.10
2022-09-21T02:59:16.541Z,48.10
2022-09-21T03:01:43.994Z,48.20
2022-09-21T03:04:11.446Z,47.80
2022-09-21T03:06:38.386Z,47.80
2022-09-21T03:09:05.387Z,48.20
2022-09-21T03:11:32.227Z,48.20
2022-09-21T03:13:59.715Z,48.00
2022-09-21T03:16:26.649Z,48.10
2022-09-21T03:18:53.423Z,48.30
2022-09-21T03:21:20.164Z,48.10
2022-09-21T03:23:46.878Z,48.30
2022-09-21T03:26:13.736Z,48.10
2022-09-21T03:28:40.501Z,48.40
2022-09-21T03:31:07.326Z,48.40
2022-09-21T03:33:34.154Z,49.70
2022-09-21T03:36:01.012Z,49.70
2022-09-21T03:38:27.808Z,49.60
2022-09-21T03:40:57.955Z,49.80
2022-09-21T03:43:25.375Z,49.60
2022-09-21T03:45:52.725Z,50.10
2022-09-21T03:48:19.519Z,50.50
2022-09-21T03:50:46.274Z,50.10
2022-09-21T03:53:14.048Z,50.10
2022-09-21T03:55:41.051Z,50.30
2022-09-21T03:58:08.474Z,50.00
2022-09-21T04:00:35.848Z,50.00
2022-09-21T04:03:02.756Z,50.30
2022-09-21T04:05:29.491Z,50.30
2022-09-21T04:07:57.094Z,50.10
2022-09-21T04:10:27.199Z,49.80
2022-09-21T04:12:57.923Z,50.30
2022-09-21T04:15:24.792Z,49.70
2022-09-21T04:17:52.607Z,49.60
2022-09-21T04:20:20.499Z,50.00
2022-09-21T04:22:47.636Z,49.80
2022-09-21T04:25:15.355Z,50.00
2022-09-21T04:27:42.422Z,49.70
2022-09-21T04:30:12.117Z,50.10
2022-09-21T04:32:39.445Z,50.00
2022-09-21T04:35:07.126Z,50.20
2022-09-21T04:37:34.097Z,50.40
2022-09-21T04:40:01.042Z,50.60
2022-09-21T04:42:28.451Z,50.40
2022-09-21T04:44:56.052Z,49.90
2022-09-21T04:47:25.330Z,49.70
2022-09-21T04:49:53.481Z,49.70
2022-09-21T04:52:20.278Z,49.80
2022-09-21T04:54:47.668Z,49.40
2022-09-21T04:57:15.309Z,49.80
2022-09-21T04:59:42.088Z,49.60
2022-09-21T05:02:09.076Z,49.60
2022-09-21T05:04:35.912Z,49.60
2022-09-21T05:07:02.883Z,49.30
2022-09-21T05:09:49.923Z,49.00
2022-09-21T05:12:16.717Z,49.30
2022-09-21T05:14:44.922Z,49.50
2022-09-21T05:17:12.607Z,49.80
2022-09-21T05:19:39.837Z,49.50
2022-09-21T05:22:06.715Z,49.60
2022-09-21T05:24:33.503Z,49.70
2022-09-21T05:27:00.389Z,49.70
2022-09-21T05:29:27.444Z,49.70
2022-09-21T05:32:06.317Z,49.70
2022-09-21T05:34:36.873Z,49.10
2022-09-21T05:37:24.240Z,49.00
2022-09-21T05:39:51.274Z,48.70
2022-09-21T05:42:18.215Z,48.80
2022-09-21T05:44:45.261Z,48.50
2022-09-21T05:47:12.213Z,47.90
2022-09-21T05:50:03.640Z,48.10
2022-09-21T05:52:43.281Z,47.90
2022-09-21T05:55:40.217Z,48.10
2022-09-21T05:58:21.002Z,47.90
2022-09-21T06:01:22.118Z,47.60
2022-09-21T06:03:50.253Z,47.70
2022-09-21T06:06:19.242Z,47.50
2022-09-21T06:08:46.019Z,46.40
2022-09-21T06:11:13.937Z,46.10
2022-09-21T06:13:43.819Z,45.20
2022-09-21T06:16:10.672Z,45.30
2022-09-21T06:18:41.204Z,43.60
2022-09-21T06:21:08.920Z,43.70
2022-09-21T06:23:37.271Z,43.70
2022-09-21T06:26:04.399Z,43.10
2022-09-21T06:28:31.222Z,43.30
2022-09-21T06:30:58.430Z,43.00
2022-09-21T06:33:25.924Z,43.00
2022-09-21T06:36:00.268Z,42.60
2022-09-21T06:38:28.271Z,42.50
2022-09-21T06:40:55.479Z,42.00
2022-09-21T06:43:22.506Z,41.90
2022-09-21T06:46:00.574Z,42.00
2022-09-21T06:48:28.759Z,41.90
2022-09-21T06:51:03.399Z,42.10
2022-09-21T06:53:31.730Z,41.90
2022-09-21T06:56:02.825Z,42.00
2022-09-21T06:58:31.238Z,42.30
2022-09-21T07:00:58.077Z,42.70
2022-09-21T07:03:25.409Z,42.80
2022-09-21T07:05:52.196Z,42.70
2022-09-21T07:11:06.213Z,42.30
2022-09-21T07:13:33.121Z,42.50
2022-09-21T07:16:04.652Z,42.30
2022-09-21T07:18:42.618Z,42.50
2022-09-21T07:21:11.514Z,42.50
2022-09-21T07:23:38.796Z,42.50
2022-09-21T07:26:08.160Z,42.10
2022-09-21T07:28:35.862Z,42.40
2022-09-21T07:31:13.990Z,42.30
2022-09-21T07:33:42.075Z,42.50
2022-09-21T07:36:12.976Z,42.10
2022-09-21T07:38:41.681Z,41.70
2022-09-21T07:41:10.292Z,41.90
2022-09-21T07:43:39.319Z,42.20
2022-09-21T07:46:07.187Z,42.00
2022-09-21T07:48:33.939Z,42.00
2022-09-21T07:51:04.252Z,41.50
2022-09-21T07:53:32.058Z,41.40
2022-09-21T07:56:16.843Z,40.90
2022-09-21T07:59:02.726Z,41.50
2022-09-21T08:01:30.208Z,40.90
2022-09-21T08:03:58.150Z,40.70
2022-09-21T08:06:27.554Z,40.60
2022-09-21T08:08:57.698Z,40.80
2022-09-21T08:11:27.638Z,40.60
2022-09-21T08:14:22.389Z,40.50
2022-09-21T08:16:52.757Z,38.30
2022-09-21T08:19:20.413Z,37.90
2022-09-21T08:21:54.805Z,38.00
2022-09-21T08:24:25.096Z,38.00
2022-09-21T08:26:52.251Z,37.40
2022-09-21T08:29:19.530Z,36.60
2022-09-21T08:31:46.876Z,36.10
2022-09-21T08:34:14.385Z,36.00
2022-09-21T08:36:41.724Z,35.30
2022-09-21T08:39:09.110Z,34.40
2022-09-21T08:42:04.844Z,34.70
2022-09-21T08:44:40.962Z,35.80
2022-09-21T08:47:15.051Z,33.70
2022-09-21T08:49:47.235Z,32.50
2022-09-21T08:52:17.637Z,32.70
2022-09-21T08:54:58.835Z,32.90
2022-09-21T08:57:33.598Z,32.00
2022-09-21T09:00:13.113Z,32.00
2022-09-21T09:03:13.496Z,30.70
2022-09-21T09:05:48.030Z,29.80
2022-09-21T09:08:19.391Z,29.80
2022-09-21T09:10:51.977Z,28.40
2022-09-21T09:13:46.154Z,27.50
2022-09-21T09:16:19.128Z,27.40
2022-09-21T09:18:52.905Z,26.40
2022-09-21T09:21:30.704Z,26.80
2022-09-21T09:24:14.099Z,27.30
2022-09-21T09:26:47.071Z,25.70
2022-09-21T09:29:29.180Z,24.10
2022-09-21T09:31:58.089Z,24.50
2022-09-21T09:34:29.152Z,23.40
2022-09-21T09:37:05.545Z,23.90
2022-09-21T09:39:32.418Z,24.20
2022-09-21T09:42:07.997Z,23.30
2022-09-21T09:44:38.957Z,23.00
2022-09-21T09:47:24.566Z,22.50
2022-09-21T09:50:05.728Z,22.40
2022-09-21T09:52:36.237Z,22.30
2022-09-21T09:55:26.022Z,21.40
2022-09-21T09:57:56.028Z,21.50
2022-09-21T10:00:23.446Z,20.50
2022-09-21T10:02:52.943Z,20.20
2022-09-21T10:05:24.488Z,19.90
2022-09-21T10:07:52.467Z,19.50
2022-09-21T10:10:40.692Z,20.10
2022-09-21T10:13:14.327Z,20.40
2022-09-21T10:15:45.064Z,20.20
2022-09-21T10:18:20.421Z,19.00
2022-09-21T10:21:21.983Z,18.90
2022-09-21T10:23:51.805Z,19.20
2022-09-21T10:26:20.054Z,18.80
2022-09-21T10:29:00.970Z,18.10
2022-09-21T10:31:31.592Z,19.10
2022-09-21T10:34:04.269Z,18.10
2022-09-21T10:36:36.879Z,18.00
2022-09-21T10:39:33.593Z,17.60
2022-09-21T10:42:13.131Z,18.00
2022-09-21T10:44:41.379Z,17.80
2022-09-21T10:47:31.090Z,17.30
2022-09-21T10:50:00.879Z,17.70
2022-09-21T10:52:38.207Z,16.90
2022-09-21T10:55:08.459Z,17.60
2022-09-21T10:57:35.373Z,16.80
2022-09-21T11:00:24.006Z,17.30
2022-09-21T11:02:51.215Z,16.50
2022-09-21T11:05:25.530Z,15.80
2022-09-21T11:08:18.136Z,16.40
2022-09-21T11:11:08.812Z,16.60
2022-09-21T11:13:48.170Z,16.20
2022-09-21T11:16:50.115Z,15.60
2022-09-21T11:19:39.066Z,15.90
2022-09-21T11:22:14.652Z,15.40
2022-09-21T11:24:52.758Z,15.40
2022-09-21T11:27:36.776Z,15.30
2022-09-21T11:30:03.609Z,14.70
2022-09-21T11:32:57.755Z,13.90
2022-09-21T11:35:47.381Z,14.00
2022-09-21T11:38:25.933Z,13.60
2022-09-21T11:41:14.414Z,12.90
2022-09-21T11:44:17.149Z,12.70
2022-09-21T11:47:12.023Z,12.60
2022-09-21T11:50:07.661Z,12.40
2022-09-21T11:52:49.586Z,12.80
2022-09-21T11:55:44.543Z,12.40
2022-09-21T11:58:30.886Z,12.70
2022-09-21T12:01:34.692Z,12.00
2022-09-21T12:04:19.497Z,12.00
2022-09-21T12:07:19.031Z,11.70
2022-09-21T12:10:11.092Z,11.90
2022-09-21T12:12:57.074Z,11.70
2022-09-21T12:15:44.027Z,12.10
2022-09-21T12:18:33.903Z,11.40
2022-09-21T12:21:11.657Z,10.90
2022-09-21T12:23:57.571Z,11.30
2022-09-21T12:26:43.020Z,11.90
2022-09-21T12:29:25.338Z,11.70
2022-09-21T12:32:16.814Z,11.60
2022-09-21T12:34:50.679Z,11.60
2022-09-21T12:37:31.787Z,10.80
2022-09-21T12:40:15.827Z,10.30
2022-09-21T12:42:49.702Z,10.60
2022-09-21T12:45:43.711Z,10.00
2022-09-21T12:48:34.579Z,9.80
2022-09-21T12:51:07.395Z,9.30
2022-09-21T12:53:38.761Z,8.80
2022-09-21T12:56:14.323Z,8.10
2022-09-21T12:58:45.834Z,7.50
2022-09-21T13:01:29.050Z,7.60
2022-09-21T13:04:34.395Z,7.30
2022-09-21T13:07:32.719Z,7.00
2022-09-21T13:10:02.158Z,6.70
2022-09-21T13:12:34.849Z,6.20
2022-09-21T13:15:17.417Z,5.80
2022-09-21T13:17:44.809Z,5.90
2022-09-21T13:20:21.903Z,5.20
2022-09-21T13:22:49.236Z,5.40
2022-09-21T13:25:28.135Z,4.90
2022-09-21T13:28:07.700Z,4.70
2022-09-21T13:30:45.533Z,4.10
2022-09-21T13:33:23.887Z,3.20
2022-09-21T13:36:02.349Z,3.70
2022-09-21T13:38:37.482Z,4.20
2022-09-21T13:41:19.663Z,4.10
2022-09-21T13:43:47.238Z,3.90
2022-09-21T13:46:52.129Z,3.60
2022-09-21T13:49:21.810Z,3.60
2022-09-21T13:51:53.271Z,3.20
2022-09-21T13:54:25.287Z,3.30
2022-09-21T13:57:18.069Z,3.60
2022-09-21T13:59:59.479Z,3.70
2022-09-21T14:02:32.565Z,4.60
2022-09-21T14:05:23.478Z,5.70
2022-09-21T14:08:16.447Z,5.90
2022-09-21T14:11:05.059Z,6.70
2022-09-21T14:13:34.235Z,6.60
2022-09-21T14:16:36.542Z,7.80
2022-09-21T14:19:17.345Z,7.90
2022-09-21T14:22:09.558Z,8.20
2022-09-21T14:25:28.543Z,8.60
2022-09-21T14:27:59.741Z,8.80
2022-09-21T14:30:30.931Z,9.60
2022-09-21T14:33:00.941Z,9.90
2022-09-21T14:35:37.819Z,10.10
2022-09-21T14:38:13.651Z,10.10
2022-09-21T14:40:47.969Z,10.50
2022-09-21T14:43:36.915Z,11.20
2022-09-21T14:46:25.813Z,11.50
2022-09-21T14:49:24.559Z,12.40
2022-09-21T14:52:19.036Z,11.40
2022-09-21T14:55:10.083Z,12.00
2022-09-21T14:58:00.949Z,12.40
2022-09-21T15:00:43.338Z,12.00
2022-09-21T15:03:54.535Z,12.30
2022-09-21T15:06:45.858Z,12.40
2022-09-21T15:10:13.551Z,13.20
2022-09-21T15:12:47.547Z,12.50
2022-09-21T15:15:19.319Z,12.90
2022-09-21T15:17:59.318Z,12.80
2022-09-21T15:20:29.582Z,13.40
2022-09-21T15:23:00.498Z,13.10
2022-09-21T15:25:32.009Z,13.60
2022-09-21T15:28:00.183Z,14.50
2022-09-21T15:30:29.396Z,14.10
2022-09-21T15:33:02.934Z,13.40
2022-09-21T15:35:32.605Z,13.50
2022-09-21T15:38:01.391Z,13.70
2022-09-21T15:40:37.192Z,13.80
2022-09-21T15:43:05.688Z,13.90
2022-09-21T15:45:34.684Z,14.70
2022-09-21T15:48:02.269Z,14.70
2022-09-21T15:50:30.210Z,15.00
2022-09-21T15:53:05.583Z,15.20
2022-09-21T15:55:33.816Z,15.30
2022-09-21T15:58:01.419Z,15.30
2022-09-21T16:00:31.845Z,15.00
2022-09-21T16:03:23.620Z,15.10
2022-09-21T16:05:54.457Z,15.50
2022-09-21T16:08:30.182Z,15.50
2022-09-21T16:11:17.262Z,15.20
2022-09-21T16:14:04.119Z,15.20
2022-09-21T16:16:31.399Z,16.00
2022-09-21T16:19:00.177Z,15.40
2022-09-21T16:21:37.575Z,15.20
2022-09-21T16:24:22.938Z,15.90
2022-09-21T16:26:58.304Z,15.20
2022-09-21T16:29:27.680Z,14.90
2022-09-21T16:32:17.559Z,15.20
2022-09-21T16:34:46.273Z,15.30
2022-09-21T16:37:25.045Z,15.20
2022-09-21T16:39:51.719Z,15.50
2022-09-21T16:42:19.614Z,16.00
2022-09-21T16:44:47.356Z,16.70
2022-09-21T16:47:28.136Z,16.80
2022-09-21T16:50:02.681Z,16.90
2022-09-21T16:52:30.331Z,17.50
2022-09-21T16:54:58.649Z,16.90
2022-09-21T16:57:26.175Z,16.70
2022-09-21T16:59:53.416Z,16.90
2022-09-21T17:02:20.231Z,17.00
2022-09-21T17:04:48.107Z,17.40
2022-09-21T17:07:16.792Z,17.30
2022-09-21T17:09:47.621Z,17.00
2022-09-21T17:12:17.640Z,17.00
2022-09-21T17:14:46.995Z,17.30
2022-09-21T17:17:23.141Z,17.50
2022-09-21T17:19:52.175Z,17.00
2022-09-21T17:22:19.601Z,17.60
2022-09-21T17:24:55.546Z,17.60
2022-09-21T17:27:25.335Z,17.60
2022-09-21T17:29:53.967Z,18.20
2022-09-21T17:32:22.908Z,18.80
2022-09-21T17:34:56.293Z,18.30
2022-09-21T17:37:24.117Z,18.70
2022-09-21T17:39:50.932Z,19.70
2022-09-21T17:42:19.671Z,19.40
2022-09-21T17:45:15.459Z,19.30
2022-09-21T17:47:42.669Z,19.20
2022-09-21T17:50:12.194Z,19.50
2022-09-21T17:53:01.877Z,19.30
2022-09-21T17:55:29.254Z,19.70
2022-09-21T17:58:15.019Z,19.50
2022-09-21T18:00:53.486Z,20.10
2022-09-21T18:03:24.459Z,19.60
2022-09-21T18:05:57.258Z,20.10
2022-09-21T18:08:26.910Z,19.90
2022-09-21T18:11:27.628Z,19.30
2022-09-21T18:14:04.760Z,20.00
2022-09-21T18:16:35.224Z,20.70
2022-09-21T18:19:03.158Z,20.10
2022-09-21T18:21:33.204Z,20.00
2022-09-21T18:24:30.053Z,20.20
2022-09-21T18:26:58.880Z,19.90
2022-09-21T18:29:39.946Z,19.80
2022-09-21T18:32:33.262Z,20.50
2022-09-21T18:35:31.362Z,20.30
2022-09-21T18:38:22.733Z,20.00
2022-09-21T18:41:31.100Z,20.60
2022-09-21T18:44:05.419Z,20.00
2022-09-21T18:46:40.782Z,20.10
2022-09-21T18:49:15.695Z,20.00
2022-09-21T18:51:53.571Z,19.70
2022-09-21T18:54:22.567Z,19.80
2022-09-21T18:56:49.967Z,19.80
2022-09-21T18:59:17.634Z,19.60
2022-09-21T19:01:48.358Z,19.20
2022-09-21T19:04:19.671Z,19.60
2022-09-21T19:07:08.607Z,19.20
2022-09-21T19:09:40.576Z,19.30
2022-09-21T19:12:35.570Z,19.90
2022-09-21T19:15:55.527Z,20.20
2022-09-21T19:18:15.443Z,19.90
2022-09-21T19:21:04.416Z,20.60
2022-09-21T19:23:47.265Z,20.50
2022-09-21T19:26:23.539Z,20.90
2022-09-21T19:29:14.452Z,20.80
2022-09-21T19:31:41.539Z,21.30
2022-09-21T19:34:28.114Z,21.30
2022-09-21T19:36:57.349Z,21.00
2022-09-21T19:39:24.559Z,21.60
2022-09-21T19:42:15.918Z,21.70
2022-09-21T19:45:06.621Z,21.60
2022-09-21T19:47:54.765Z,21.00
2022-09-21T19:50:38.604Z,21.30
2022-09-21T19:53:28.214Z,21.50
2022-09-21T19:56:16.570Z,22.00
2022-09-21T19:59:03.505Z,22.40
2022-09-21T20:01:34.030Z,22.10
2022-09-21T20:04:02.587Z,22.40
2022-09-21T20:06:39.494Z,22.50
2022-09-21T20:09:36.708Z,21.90
2022-09-21T20:12:21.852Z,22.00
2022-09-21T20:15:10.597Z,22.20
2022-09-21T20:17:47.895Z,22.40
2022-09-21T20:20:26.425Z,22.80
2022-09-21T20:22:54.892Z,22.60
2022-09-21T20:25:33.947Z,22.70
2022-09-21T20:28:02.039Z,22.50
2022-09-21T20:30:32.770Z,23.00
2022-09-21T20:33:03.651Z,22.90
2022-09-21T20:35:31.072Z,22.70
2022-09-21T20:38:02.186Z,23.00
2022-09-21T20:40:31.182Z,23.40
2022-09-21T20:42:58.426Z,23.30
2022-09-21T20:45:25.537Z,23.20
2022-09-21T20:47:53.532Z,23.70
2022-09-21T20:50:20.667Z,23.30
2022-09-21T20:52:47.725Z,23.40
2022-09-21T20:55:20.367Z,23.80
2022-09-21T20:57:47.239Z,23.90
2022-09-21T21:00:15.676Z,23.80
2022-09-21T21:02:42.782Z,24.10
2022-09-21T21:05:11.243Z,23.90
2022-09-21T21:07:40.087Z,24.10
2022-09-21T21:10:07.127Z,24.00
2022-09-21T21:12:33.937Z,24.10
2022-09-21T21:15:00.704Z,23.70
2022-09-21T21:17:27.479Z,24.00
2022-09-21T21:19:54.264Z,23.70
2022-09-21T21:22:21.038Z,24.50
2022-09-21T21:24:48.007Z,23.80
2022-09-21T21:27:20.844Z,23.70
2022-09-21T21:29:52.903Z,25.80
2022-09-21T21:32:23.830Z,25.90
2022-09-21T21:34:51.414Z,24.60
2022-09-21T21:37:19.596Z,26.10
2022-09-21T21:39:46.712Z,25.90
2022-09-21T21:42:13.952Z,26.10
2022-09-21T21:44:40.842Z,25.90
2022-09-21T21:47:27.849Z,26.00
2022-09-21T21:49:54.368Z,26.10
2022-09-21T21:52:21.282Z,26.20
2022-09-21T21:54:48.007Z,26.40
2022-09-21T21:57:15.005Z,26.50
2022-09-21T21:59:43.387Z,26.40
2022-09-21T22:02:10.683Z,26.90
2022-09-21T22:04:38.737Z,27.00
2022-09-21T22:07:05.978Z,26.50
2022-09-21T22:09:32.936Z,26.80
2022-09-21T22:12:02.002Z,26.60
2022-09-21T22:14:30.429Z,26.70
2022-09-21T22:16:58.947Z,27.00
2022-09-21T22:19:25.721Z,26.70
2022-09-21T22:21:54.348Z,27.00
2022-09-21T22:24:22.389Z,27.00
2022-09-21T22:26:49.601Z,27.00
2022-09-21T22:29:17.397Z,26.80
2022-09-21T22:31:47.306Z,26.90
2022-09-21T22:34:15.087Z,27.20
2022-09-21T22:36:43.873Z,26.90
2022-09-21T22:39:11.410Z,26.90
2022-09-21T22:41:41.228Z,27.00
2022-09-21T22:44:08.730Z,27.00
2022-09-21T22:46:35.890Z,27.10
2022-09-21T22:49:03.734Z,27.00
2022-09-21T22:51:30.621Z,27.10
2022-09-21T22:53:58.113Z,27.20
2022-09-21T22:56:27.293Z,27.30
2022-09-21T22:58:56.005Z,27.30
2022-09-21T23:01:28.352Z,27.00
2022-09-21T23:03:57.881Z,27.10
2022-09-21T23:06:28.147Z,27.20
2022-09-21T23:08:56.991Z,27.30
2022-09-21T23:11:27.296Z,27.30
2022-09-21T23:13:55.557Z,27.00
2022-09-21T23:16:23.553Z,26.80
2022-09-21T23:18:51.341Z,26.70
2022-09-21T23:21:22.134Z,27.30
2022-09-21T23:23:49.379Z,27.30
2022-09-21T23:26:21.921Z,27.60
2022-09-21T23:28:57.034Z,27.70
2022-09-21T23:31:24.420Z,27.80
2022-09-21T23:33:53.280Z,27.50
2022-09-21T23:36:26.558Z,27.70
2022-09-21T23:38:53.751Z,27.90
2022-09-21T23:41:29.027Z,27.90
2022-09-21T23:43:57.119Z,27.80
2022-09-21T23:46:28.012Z,28.30
2022-09-21T23:48:55.388Z,28.50
2022-09-21T23:51:22.792Z,28.70
2022-09-21T23:53:50.132Z,28.50
2022-09-21T23:56:19.211Z,28.90
2022-09-21T23:58:46.197Z,28.90
